Novo Milenio — CUOW5 — position and weather

sailwx.info

Track history (hours):
 
Tides and Currents Weather Stations Pressure Air Temp Water Temp Dewpoint Dewpoint Depression Visibility Wind Speed Wind Dir Waves Ship Positions

Novo Milenio

Last reported at 2017-Dec-09 14:05 UTC. Time now 2017-Dec-13 20:35 UTC.
Position N 39°12' W 009°28'.

Length 15 m.

Type: Fishing. MMSI: 263500321.

Date/timePositionNaut miles runAvg speedWind from/ knotsBaromVisibWave heightAir tempDewpointWater temp
2017-Dec-09 14:05N 39°12' W 009°28'1 7.8
2017-Dec-09 14:00N 39°11' W 009°28'4 7.7
2017-Dec-09 13:30N 39°08' W 009°30'4 7.5
2017-Dec-09 13:00N 39°04' W 009°32'4 7.7
2017-Dec-09 12:30N 39°01' W 009°34'4 7.8
2017-Dec-09 12:00N 38°57' W 009°36'4 7.8
2017-Dec-09 11:30N 38°54' W 009°38'4 7.9
2017-Dec-09 11:00N 38°50' W 009°41'4 7.7
2017-Dec-09 10:30N 38°47' W 009°43'4 7.5
2017-Dec-09 10:00N 38°44' W 009°46'4 7.8
2017-Dec-09 09:30N 38°40' W 009°48'4 8.0
2017-Dec-09 09:00N 38°37' W 009°50'4 8.3
2017-Dec-09 08:30N 38°33' W 009°53'4 8.0
2017-Dec-09 08:00N 38°30' W 009°55'  
2017-Dec-03 11:47N 38°42' W 009°48'3 7.5
2017-Dec-03 11:22N 38°45' W 009°47'3 7.3
2017-Dec-03 10:59N 38°48' W 009°45'3 7.3
2017-Dec-03 10:30N 38°51' W 009°43'4 7.6
2017-Dec-03 10:00N 38°54' W 009°41'4 7.7
2017-Dec-03 09:30N 38°58' W 009°39'4 8.0
2017-Dec-03 09:00N 39°01' W 009°36'4 8.2
2017-Dec-03 08:30N 39°05' W 009°34'4 8.4
2017-Dec-03 08:00N 39°08' W 009°31'4 8.3
2017-Dec-03 07:30N 39°12' W 009°29'  
Track history (hours):
 
Tides and Currents Weather Stations Pressure Air Temp Water Temp Dewpoint Dewpoint Depression Visibility Wind Speed Wind Dir Waves Ship Positions

Novo Milenio

Last reported at 2017-Dec-09 14:05 UTC. Time now 2017-Dec-13 20:35 UTC.
Position N 39°12' W 009°28'.

Length 15 m.

Type: Fishing. MMSI: 263500321.

Date/timePositionNaut miles runAvg speedWind from/ knotsBaromVisibWave heightAir tempDewpointWater temp
2017-Dec-09 14:05N 39°12' W 009°28'1 7.8
2017-Dec-09 14:00N 39°11' W 009°28'4 7.7
2017-Dec-09 13:30N 39°08' W 009°30'4 7.5
2017-Dec-09 13:00N 39°04' W 009°32'4 7.7
2017-Dec-09 12:30N 39°01' W 009°34'4 7.8
2017-Dec-09 12:00N 38°57' W 009°36'4 7.8
2017-Dec-09 11:30N 38°54' W 009°38'4 7.9
2017-Dec-09 11:00N 38°50' W 009°41'4 7.7
2017-Dec-09 10:30N 38°47' W 009°43'4 7.5
2017-Dec-09 10:00N 38°44' W 009°46'4 7.8
2017-Dec-09 09:30N 38°40' W 009°48'4 8.0
2017-Dec-09 09:00N 38°37' W 009°50'4 8.3
2017-Dec-09 08:30N 38°33' W 009°53'4 8.0
2017-Dec-09 08:00N 38°30' W 009°55'  
2017-Dec-03 11:47N 38°42' W 009°48'3 7.5
2017-Dec-03 11:22N 38°45' W 009°47'3 7.3
2017-Dec-03 10:59N 38°48' W 009°45'3 7.3
2017-Dec-03 10:30N 38°51' W 009°43'4 7.6
2017-Dec-03 10:00N 38°54' W 009°41'4 7.7
2017-Dec-03 09:30N 38°58' W 009°39'4 8.0
2017-Dec-03 09:00N 39°01' W 009°36'4 8.2
2017-Dec-03 08:30N 39°05' W 009°34'4 8.4
2017-Dec-03 08:00N 39°08' W 009°31'4 8.3
2017-Dec-03 07:30N 39°12' W 009°29'  

Dump ship's entire track history